Pagina principale
METAR-TAF:

METAR-TAF

Aeroporti :

Kenai, Alaska, Stati Uniti

latitudine: 60-34-23N, longitudine: 151-14-42W, altezza: 30 m

Osservazione

Il bollettino è stato emesso 25 minuti fa, alle 14:53 UTC
Vento 3 kt da sud
Temperature 11°C
Umidità 82%
Pressione 1025 hPa
Visibilità: 16.1 km
Cielo sereno

METAR: PAEN 191453Z 17003KT 10SM CLR 11/08 A3026 RMK AO2 SLP249 T01060083 53010

Ora: 07:18 (15:18 UTC)

Previsione

Il bollettino è stato emesso 3 ore e 49 minuti fa, alle 11:29 UTC
Previsione valida dal 19 alle 12 UTC al 20 alle 12 UTC
Vento 12 kt da sud/sud-ovest
Visibilità: 10 km
Poco nuvoloso ad un'altezza di 300 ft
nebbia nelle vicinanze
A partire da 19 alle 1800 UTC
Vento 8 kt da sud-ovest
Visibilità: 10 km
Poco nuvoloso ad un'altezza di 20000 ft
A partire da 20 alle 0000 UTC
Vento 15 kt da sud-ovest
Visibilità: 10 km
Poco nuvoloso ad un'altezza di 20000 ft

TAF: PAEN 191129Z 1912/2012 21012KT P6SM VCFG FEW003 FM191800 22008KT P6SM FEW200 FM200000 22015KT P6SM FEW200

Osservazioni e previsioni meteorologiche di più di 4000 aeroporti (messaggi METAR e TAF).

Le stazioni disponibili sono rappresentate dai dischi gialli e rossi sulla carta.

Puntare il mouse per vedere il nome della stazione.

Clicca sopra per visualizzare le osservazioni e previsioni meteorologiche.

Per cambiare la mappa : fare clic sui pulsanti verdi con una croce nera per ingrandire, il pulsante verde con un trattino per diminuire, o sulla freccia verde per le mappe adiacenti.


METAR-TAF: